sensor_id;sensor_type;location;lat;lon;timestamp;pressure;altitude;pressure_sealevel;temperature;humidity
77216;BME280;66210;53.282;9.864;2023-08-21T00:01:29;101743.31;;;17.21;85.69
77216;BME280;66210;53.282;9.864;2023-08-21T00:03:56;101738.94;;;17.18;85.58
77216;BME280;66210;53.282;9.864;2023-08-21T00:06:22;101740.50;;;17.15;85.62
77216;BME280;66210;53.282;9.864;2023-08-21T00:08:49;101735.34;;;17.13;85.83
77216;BME280;66210;53.282;9.864;2023-08-21T00:11:16;101724.91;;;17.09;85.67
77216;BME280;66210;53.282;9.864;2023-08-21T00:13:43;101744.56;;;17.08;85.57
77216;BME280;66210;53.282;9.864;2023-08-21T00:16:11;101747.88;;;17.06;85.58
77216;BME280;66210;53.282;9.864;2023-08-21T00:18:38;101739.22;;;17.02;85.58
77216;BME280;66210;53.282;9.864;2023-08-21T00:21:05;101734.09;;;17.02;85.53
77216;BME280;66210;53.282;9.864;2023-08-21T00:23:32;101728.97;;;17.02;85.03
77216;BME280;66210;53.282;9.864;2023-08-21T00:25:59;101720.19;;;16.97;85.19
77216;BME280;66210;53.282;9.864;2023-08-21T00:28:26;101728.78;;;16.97;85.25
77216;BME280;66210;53.282;9.864;2023-08-21T00:31:00;101731.28;;;16.96;85.11
77216;BME280;66210;53.282;9.864;2023-08-21T00:33:29;101726.81;;;16.90;85.15
77216;BME280;66210;53.282;9.864;2023-08-21T00:35:56;101719.09;;;16.90;85.46
77216;BME280;66210;53.282;9.864;2023-08-21T00:38:23;101723.19;;;16.85;84.82
77216;BME280;66210;53.282;9.864;2023-08-21T00:40:50;101716.06;;;16.78;85.27
77216;BME280;66210;53.282;9.864;2023-08-21T00:43:17;101715.75;;;16.69;84.96
77216;BME280;66210;53.282;9.864;2023-08-21T00:45:46;101724.13;;;16.65;85.29
77216;BME280;66210;53.282;9.864;2023-08-21T00:48:14;101722.22;;;16.59;85.34
77216;BME280;66210;53.282;9.864;2023-08-21T00:50:41;101722.00;;;16.53;85.53
77216;BME280;66210;53.282;9.864;2023-08-21T00:53:09;101722.94;;;16.55;85.67
77216;BME280;66210;53.282;9.864;2023-08-21T00:55:37;101716.72;;;16.50;85.38
77216;BME280;66210;53.282;9.864;2023-08-21T00:58:04;101723.66;;;16.52;85.12
77216;BME280;66210;53.282;9.864;2023-08-21T01:00:32;101716.72;;;16.50;85.41
77216;BME280;66210;53.282;9.864;2023-08-21T01:03:00;101728.69;;;16.49;85.21
77216;BME280;66210;53.282;9.864;2023-08-21T01:05:27;101720.81;;;16.45;86.00
77216;BME280;66210;53.282;9.864;2023-08-21T01:08:17;101729.34;;;16.44;85.43
77216;BME280;66210;53.282;9.864;2023-08-21T01:10:54;101731.78;;;16.40;85.55
77216;BME280;66210;53.282;9.864;2023-08-21T01:13:47;101734.31;;;16.39;85.26
77216;BME280;66210;53.282;9.864;2023-08-21T01:16:19;101732.13;;;16.27;85.60
77216;BME280;66210;53.282;9.864;2023-08-21T01:18:47;101737.22;;;16.26;85.51
77216;BME280;66210;53.282;9.864;2023-08-21T01:21:16;101727.66;;;16.21;85.47
77216;BME280;66210;53.282;9.864;2023-08-21T01:23:43;101738.78;;;16.22;85.82
77216;BME280;66210;53.282;9.864;2023-08-21T01:26:10;101728.28;;;16.16;85.46
77216;BME280;66210;53.282;9.864;2023-08-21T01:28:37;101735.97;;;16.16;85.48
77216;BME280;66210;53.282;9.864;2023-08-21T01:33:44;101732.28;;;16.09;85.58
77216;BME280;66210;53.282;9.864;2023-08-21T01:36:12;101725.34;;;16.07;85.57
77216;BME280;66210;53.282;9.864;2023-08-21T01:38:40;101730.38;;;16.04;85.54
77216;BME280;66210;53.282;9.864;2023-08-21T01:41:07;101738.16;;;16.07;85.75
77216;BME280;66210;53.282;9.864;2023-08-21T01:43:33;101737.22;;;16.05;85.88
77216;BME280;66210;53.282;9.864;2023-08-21T01:46:01;101737.06;;;16.00;85.73
77216;BME280;66210;53.282;9.864;2023-08-21T01:48:29;101737.53;;;15.90;85.75
77216;BME280;66210;53.282;9.864;2023-08-21T01:50:55;101736.31;;;15.82;85.60
77216;BME280;66210;53.282;9.864;2023-08-21T01:53:22;101746.38;;;15.77;85.89
77216;BME280;66210;53.282;9.864;2023-08-21T01:55:49;101736.59;;;15.68;86.13
77216;BME280;66210;53.282;9.864;2023-08-21T01:58:16;101737.28;;;15.64;86.24
77216;BME280;66210;53.282;9.864;2023-08-21T02:00:45;101738.16;;;15.65;86.07
77216;BME280;66210;53.282;9.864;2023-08-21T02:03:12;101738.91;;;15.62;86.05
77216;BME280;66210;53.282;9.864;2023-08-21T02:05:40;101728.63;;;15.61;85.68
77216;BME280;66210;53.282;9.864;2023-08-21T02:08:11;101728.63;;;15.61;85.74
77216;BME280;66210;53.282;9.864;2023-08-21T02:10:47;101727.66;;;15.58;85.71
77216;BME280;66210;53.282;9.864;2023-08-21T02:13:13;101726.66;;;15.55;86.14
77216;BME280;66210;53.282;9.864;2023-08-21T02:15:40;101729.28;;;15.56;85.79
77216;BME280;66210;53.282;9.864;2023-08-21T02:18:07;101731.78;;;15.55;86.04
77216;BME280;66210;53.282;9.864;2023-08-21T02:20:34;101731.59;;;15.50;85.75
77216;BME280;66210;53.282;9.864;2023-08-21T02:23:00;101726.00;;;15.39;85.60
77216;BME280;66210;53.282;9.864;2023-08-21T02:25:29;101735.13;;;15.33;85.58
77216;BME280;66210;53.282;9.864;2023-08-21T02:27:56;101737.47;;;15.28;85.87
77216;BME280;66210;53.282;9.864;2023-08-21T02:30:23;101739.06;;;15.25;86.14
77216;BME280;66210;53.282;9.864;2023-08-21T02:32:54;101741.53;;;15.23;86.29
77216;BME280;66210;53.282;9.864;2023-08-21T02:35:20;101737.09;;;15.19;85.94
77216;BME280;66210;53.282;9.864;2023-08-21T02:37:47;101740.28;;;15.13;86.12
77216;BME280;66210;53.282;9.864;2023-08-21T02:40:14;101739.38;;;15.13;86.24
77216;BME280;66210;53.282;9.864;2023-08-21T02:42:41;101743.63;;;15.12;86.40
77216;BME280;66210;53.282;9.864;2023-08-21T02:45:08;101744.56;;;15.14;86.18
77216;BME280;66210;53.282;9.864;2023-08-21T02:47:37;101750.63;;;15.16;86.02
77216;BME280;66210;53.282;9.864;2023-08-21T02:50:05;101740.28;;;15.13;86.29
77216;BME280;66210;53.282;9.864;2023-08-21T02:52:33;101753.31;;;15.20;86.05
77216;BME280;66210;53.282;9.864;2023-08-21T02:55:00;101739.53;;;15.16;86.31
77216;BME280;66210;53.282;9.864;2023-08-21T02:57:27;101753.19;;;15.16;85.72
77216;BME280;66210;53.282;9.864;2023-08-21T02:59:55;101751.44;;;15.15;86.02
77216;BME280;66210;53.282;9.864;2023-08-21T03:02:22;101752.13;;;15.11;86.07
77216;BME280;66210;53.282;9.864;2023-08-21T03:04:49;101768.28;;;15.10;86.02
77216;BME280;66210;53.282;9.864;2023-08-21T03:07:16;101752.66;;;15.04;86.04
77216;BME280;66210;53.282;9.864;2023-08-21T03:09:45;101763.63;;;15.02;86.11
77216;BME280;66210;53.282;9.864;2023-08-21T03:12:13;101755.53;;;14.92;86.08
77216;BME280;66210;53.282;9.864;2023-08-21T03:14:40;101762.22;;;14.89;86.68
77216;BME280;66210;53.282;9.864;2023-08-21T03:17:07;101755.13;;;14.83;86.39
77216;BME280;66210;53.282;9.864;2023-08-21T03:19:34;101757.78;;;14.85;86.37
77216;BME280;66210;53.282;9.864;2023-08-21T03:22:01;101755.13;;;14.83;86.42
77216;BME280;66210;53.282;9.864;2023-08-21T03:24:28;101759.31;;;14.81;86.59
77216;BME280;66210;53.282;9.864;2023-08-21T03:26:54;101755.13;;;14.83;86.37
77216;BME280;66210;53.282;9.864;2023-08-21T03:29:21;101748.13;;;14.79;86.32
77216;BME280;66210;53.282;9.864;2023-08-21T03:31:49;101751.34;;;14.75;86.41
77216;BME280;66210;53.282;9.864;2023-08-21T03:34:16;101750.41;;;14.73;86.23
77216;BME280;66210;53.282;9.864;2023-08-21T03:36:42;101758.81;;;14.70;86.05
77216;BME280;66210;53.282;9.864;2023-08-21T03:39:09;101758.47;;;14.63;86.17
77216;BME280;66210;53.282;9.864;2023-08-21T03:41:36;101757.31;;;14.56;86.79
77216;BME280;66210;53.282;9.864;2023-08-21T03:44:03;101753.69;;;14.52;86.68
77216;BME280;66210;53.282;9.864;2023-08-21T03:46:31;101762.19;;;14.51;86.67
77216;BME280;66210;53.282;9.864;2023-08-21T03:48:58;101767.19;;;14.48;86.62
77216;BME280;66210;53.282;9.864;2023-08-21T03:51:25;101772.34;;;14.50;86.75
77216;BME280;66210;53.282;9.864;2023-08-21T03:53:51;101766.22;;;14.46;86.64
77216;BME280;66210;53.282;9.864;2023-08-21T03:56:18;101765.06;;;14.40;86.42
77216;BME280;66210;53.282;9.864;2023-08-21T03:58:45;101766.59;;;14.36;86.65
77216;BME280;66210;53.282;9.864;2023-08-21T04:01:13;101758.63;;;14.30;86.64
77216;BME280;66210;53.282;9.864;2023-08-21T04:03:40;101765.56;;;14.32;87.04
77216;BME280;66210;53.282;9.864;2023-08-21T04:06:06;101761.13;;;14.28;86.43
77216;BME280;66210;53.282;9.864;2023-08-21T04:08:33;101762.72;;;14.26;86.77
77216;BME280;66210;53.282;9.864;2023-08-21T04:11:01;101765.94;;;14.22;86.92
77216;BME280;66210;53.282;9.864;2023-08-21T04:13:28;101776.25;;;14.24;87.01
77216;BME280;66210;53.282;9.864;2023-08-21T04:15:55;101762.31;;;14.17;86.50
77216;BME280;66210;53.282;9.864;2023-08-21T04:18:23;101769.66;;;14.11;86.46
77216;BME280;66210;53.282;9.864;2023-08-21T04:21:06;101762.28;;;13.99;86.76
77216;BME280;66210;53.282;9.864;2023-08-21T04:23:33;101763.81;;;13.96;86.57
77216;BME280;66210;53.282;9.864;2023-08-21T04:26:03;101783.31;;;13.93;86.84
77216;BME280;66210;53.282;9.864;2023-08-21T04:28:31;101780.81;;;13.95;87.06
77216;BME280;66210;53.282;9.864;2023-08-21T04:30:58;101778.53;;;14.01;87.33
77216;BME280;66210;53.282;9.864;2023-08-21T04:33:27;101792.28;;;14.03;86.89
77216;BME280;66210;53.282;9.864;2023-08-21T04:35:54;101774.25;;;14.00;86.57
77216;BME280;66210;53.282;9.864;2023-08-21T04:38:21;101775.22;;;14.02;86.55
77216;BME280;66210;53.282;9.864;2023-08-21T04:40:47;101774.47;;;14.05;86.32
77216;BME280;66210;53.282;9.864;2023-08-21T04:43:14;101777.97;;;14.07;86.75
77216;BME280;66210;53.282;9.864;2023-08-21T04:45:48;101778.84;;;14.07;86.49
77216;BME280;66210;53.282;9.864;2023-08-21T04:48:19;101786.59;;;14.09;86.94
77216;BME280;66210;53.282;9.864;2023-08-21T04:50:46;101777.97;;;14.07;86.91
77216;BME280;66210;53.282;9.864;2023-08-21T04:53:13;101771.91;;;14.05;86.25
77216;BME280;66210;53.282;9.864;2023-08-21T04:55:40;101780.22;;;14.01;86.19
77216;BME280;66210;53.282;9.864;2023-08-21T04:58:08;101778.28;;;13.95;86.64
77216;BME280;66210;53.282;9.864;2023-08-21T05:00:35;101790.53;;;14.02;86.94
77216;BME280;66210;53.282;9.864;2023-08-21T05:03:02;101773.44;;;14.01;86.78
77216;BME280;66210;53.282;9.864;2023-08-21T05:05:28;101787.56;;;14.11;86.83
77216;BME280;66210;53.282;9.864;2023-08-21T05:07:55;101778.06;;;14.08;86.51
77216;BME280;66210;53.282;9.864;2023-08-21T05:10:22;101792.97;;;14.17;86.69
77216;BME280;66210;53.282;9.864;2023-08-21T05:12:49;101784.50;;;14.18;86.77
77216;BME280;66210;53.282;9.864;2023-08-21T05:15:15;101793.41;;;14.26;86.43
77216;BME280;66210;53.282;9.864;2023-08-21T05:17:43;101785.75;;;14.26;86.37
77216;BME280;66210;53.282;9.864;2023-08-21T05:20:10;101792.81;;;14.32;86.82
77216;BME280;66210;53.282;9.864;2023-08-21T05:22:40;101799.00;;;14.37;86.42
77216;BME280;66210;53.282;9.864;2023-08-21T05:25:08;101799.19;;;14.40;86.55
77216;BME280;66210;53.282;9.864;2023-08-21T05:27:34;101784.69;;;14.41;86.59
77216;BME280;66210;53.282;9.864;2023-08-21T05:30:01;101802.09;;;14.48;86.32
77216;BME280;66210;53.282;9.864;2023-08-21T05:32:28;101792.81;;;14.50;86.59
77216;BME280;66210;53.282;9.864;2023-08-21T05:34:54;101802.53;;;14.57;86.52
77216;BME280;66210;53.282;9.864;2023-08-21T05:37:21;101801.84;;;14.60;86.47
77216;BME280;66210;53.282;9.864;2023-08-21T05:39:47;101806.25;;;14.64;86.55
77216;BME280;66210;53.282;9.864;2023-08-21T05:42:15;101803.03;;;14.68;86.40
77216;BME280;66210;53.282;9.864;2023-08-21T05:44:41;101793.09;;;14.74;86.37
77216;BME280;66210;53.282;9.864;2023-08-21T05:47:09;101799.50;;;14.84;86.46
77216;BME280;66210;53.282;9.864;2023-08-21T05:49:36;101794.56;;;14.87;86.42
77216;BME280;66210;53.282;9.864;2023-08-21T05:52:03;101791.66;;;14.99;86.07
77216;BME280;66210;53.282;9.864;2023-08-21T05:54:29;101795.38;;;15.05;86.44
77216;BME280;66210;53.282;9.864;2023-08-21T05:56:57;101795.03;;;15.17;86.03
77216;BME280;66210;53.282;9.864;2023-08-21T05:59:30;101782.50;;;15.23;85.83
77216;BME280;66210;53.282;9.864;2023-08-21T06:01:57;101784.16;;;15.42;86.28
77216;BME280;66210;53.282;9.864;2023-08-21T06:04:24;101788.44;;;15.63;85.17
77216;BME280;66210;53.282;9.864;2023-08-21T06:06:51;101797.44;;;15.72;84.85
77216;BME280;66210;53.282;9.864;2023-08-21T06:09:18;101798.50;;;15.77;84.27
77216;BME280;66210;53.282;9.864;2023-08-21T06:11:44;101808.06;;;15.82;85.28
77216;BME280;66210;53.282;9.864;2023-08-21T06:14:11;101803.63;;;15.77;84.87
77216;BME280;66210;53.282;9.864;2023-08-21T06:16:37;101804.38;;;15.75;85.42
77216;BME280;66210;53.282;9.864;2023-08-21T06:19:05;101802.69;;;15.75;85.51
77216;BME280;66210;53.282;9.864;2023-08-21T06:21:33;101794.06;;;15.73;85.67
77216;BME280;66210;53.282;9.864;2023-08-21T06:24:00;101803.63;;;15.77;86.26
77216;BME280;66210;53.282;9.864;2023-08-21T06:26:26;101800.19;;;15.77;86.58
77216;BME280;66210;53.282;9.864;2023-08-21T06:28:53;101804.56;;;15.79;86.87
77216;BME280;66210;53.282;9.864;2023-08-21T06:31:19;101801.19;;;15.80;86.63
77216;BME280;66210;53.282;9.864;2023-08-21T06:33:47;101812.81;;;15.93;86.63
77216;BME280;66210;53.282;9.864;2023-08-21T06:36:13;101811.28;;;15.97;87.34
77216;BME280;66210;53.282;9.864;2023-08-21T06:38:40;101807.22;;;16.02;87.17
77216;BME280;66210;53.282;9.864;2023-08-21T06:41:07;101807.31;;;16.05;87.62
77216;BME280;66210;53.282;9.864;2023-08-21T06:43:38;101813.91;;;16.19;87.97
77216;BME280;66210;53.282;9.864;2023-08-21T06:46:09;101819.47;;;16.30;88.73
77216;BME280;66210;53.282;9.864;2023-08-21T06:48:38;101817.13;;;16.36;88.93
77216;BME280;66210;53.282;9.864;2023-08-21T06:51:05;101824.63;;;16.53;90.06
77216;BME280;66210;53.282;9.864;2023-08-21T06:53:34;101823.56;;;16.70;90.75
77216;BME280;66210;53.282;9.864;2023-08-21T06:56:01;101820.75;;;16.85;89.52
77216;BME280;66210;53.282;9.864;2023-08-21T06:58:28;101825.34;;;16.94;89.58
77216;BME280;66210;53.282;9.864;2023-08-21T07:00:55;101826.72;;;17.08;90.11
77216;BME280;66210;53.282;9.864;2023-08-21T07:03:22;101819.56;;;17.22;89.96
77216;BME280;66210;53.282;9.864;2023-08-21T07:05:56;101820.97;;;17.38;90.17
77216;BME280;66210;53.282;9.864;2023-08-21T07:08:24;101811.16;;;17.52;89.47
77216;BME280;66210;53.282;9.864;2023-08-21T07:10:51;101828.16;;;17.72;89.51
77216;BME280;66210;53.282;9.864;2023-08-21T07:13:19;101814.63;;;17.78;89.17
77216;BME280;66210;53.282;9.864;2023-08-21T07:15:46;101826.22;;;17.91;89.25
77216;BME280;66210;53.282;9.864;2023-08-21T07:18:14;101825.59;;;17.98;89.09
77216;BME280;66210;53.282;9.864;2023-08-21T07:20:41;101820.66;;;18.04;88.96
77216;BME280;66210;53.282;9.864;2023-08-21T07:23:08;101813.97;;;18.09;89.62
77216;BME280;66210;53.282;9.864;2023-08-21T07:25:35;101828.94;;;18.21;89.22
77216;BME280;66210;53.282;9.864;2023-08-21T07:28:02;101822.19;;;18.24;88.66
77216;BME280;66210;53.282;9.864;2023-08-21T07:30:29;101833.59;;;18.33;88.80
77216;BME280;66210;53.282;9.864;2023-08-21T07:32:56;101829.38;;;18.35;87.83
77216;BME280;66210;53.282;9.864;2023-08-21T07:35:23;101836.50;;;18.43;87.54
77216;BME280;66210;53.282;9.864;2023-08-21T07:37:50;101831.44;;;18.46;87.07
77216;BME280;66210;53.282;9.864;2023-08-21T07:40:16;101829.03;;;18.51;86.63
77216;BME280;66210;53.282;9.864;2023-08-21T07:42:43;101834.44;;;18.60;86.64
77216;BME280;66210;53.282;9.864;2023-08-21T07:45:12;101838.19;;;18.70;86.52
77216;BME280;66210;53.282;9.864;2023-08-21T07:47:39;101835.75;;;18.75;86.16
77216;BME280;66210;53.282;9.864;2023-08-21T07:50:06;101827.41;;;18.82;85.47
77216;BME280;66210;53.282;9.864;2023-08-21T07:52:35;101827.53;;;18.86;85.41
77216;BME280;66210;53.282;9.864;2023-08-21T07:55:03;101825.03;;;18.88;85.39
77216;BME280;66210;53.282;9.864;2023-08-21T07:57:30;101828.72;;;18.98;85.42
77216;BME280;66210;53.282;9.864;2023-08-21T07:59:57;101823.72;;;19.02;84.67
77216;BME280;66210;53.282;9.864;2023-08-21T08:02:24;101816.97;;;19.07;84.75
77216;BME280;66210;53.282;9.864;2023-08-21T08:04:51;101826.63;;;19.15;85.42
77216;BME280;66210;53.282;9.864;2023-08-21T08:07:18;101819.81;;;19.17;84.99
77216;BME280;66210;53.282;9.864;2023-08-21T08:09:45;101832.88;;;19.23;84.88
77216;BME280;66210;53.282;9.864;2023-08-21T08:12:13;101823.56;;;19.28;84.28
77216;BME280;66210;53.282;9.864;2023-08-21T08:14:40;101835.09;;;19.41;83.88
77216;BME280;66210;53.282;9.864;2023-08-21T08:17:07;101837.91;;;19.50;83.92
77216;BME280;66210;53.282;9.864;2023-08-21T08:19:34;101837.34;;;19.60;83.31
77216;BME280;66210;53.282;9.864;2023-08-21T08:22:00;101830.91;;;19.76;82.51
77216;BME280;66210;53.282;9.864;2023-08-21T08:24:27;101830.59;;;19.99;81.26
77216;BME280;66210;53.282;9.864;2023-08-21T08:26:53;101832.88;;;20.21;78.44
77216;BME280;66210;53.282;9.864;2023-08-21T08:29:20;101833.66;;;20.55;77.43
77216;BME280;66210;53.282;9.864;2023-08-21T08:31:46;101827.63;;;20.92;75.09
77216;BME280;66210;53.282;9.864;2023-08-21T08:34:13;101837.03;;;21.33;73.58
77216;BME280;66210;53.282;9.864;2023-08-21T08:36:41;101828.34;;;21.75;71.65
77216;BME280;66210;53.282;9.864;2023-08-21T08:39:08;101824.56;;;22.08;70.31
77216;BME280;66210;53.282;9.864;2023-08-21T08:41:50;101827.56;;;22.32;68.56
77216;BME280;66210;53.282;9.864;2023-08-21T08:44:18;101833.88;;;22.50;68.01
77216;BME280;66210;53.282;9.864;2023-08-21T08:46:45;101835.72;;;22.58;66.33
77216;BME280;66210;53.282;9.864;2023-08-21T08:49:12;101831.59;;;22.71;66.73
77216;BME280;66210;53.282;9.864;2023-08-21T08:51:41;101826.53;;;22.80;67.53
77216;BME280;66210;53.282;9.864;2023-08-21T08:54:10;101825.84;;;22.95;67.04
77216;BME280;66210;53.282;9.864;2023-08-21T08:56:38;101833.03;;;23.15;66.63
77216;BME280;66210;53.282;9.864;2023-08-21T08:59:07;101835.88;;;23.36;65.33
77216;BME280;66210;53.282;9.864;2023-08-21T09:01:36;101831.69;;;23.51;64.39
77216;BME280;66210;53.282;9.864;2023-08-21T09:04:03;101823.91;;;23.52;62.96
77216;BME280;66210;53.282;9.864;2023-08-21T09:06:30;101824.72;;;23.50;63.82
77216;BME280;66210;53.282;9.864;2023-08-21T09:08:58;101824.84;;;23.60;63.01
77216;BME280;66210;53.282;9.864;2023-08-21T09:11:26;101820.56;;;23.67;60.44
77216;BME280;66210;53.282;9.864;2023-08-21T09:13:54;101812.03;;;23.76;61.98
77216;BME280;66210;53.282;9.864;2023-08-21T09:16:23;101811.41;;;24.01;61.16
77216;BME280;66210;53.282;9.864;2023-08-21T09:18:53;101820.97;;;24.10;61.71
77216;BME280;66210;53.282;9.864;2023-08-21T09:21:23;101820.91;;;23.99;62.84
77216;BME280;66210;53.282;9.864;2023-08-21T09:24:01;101818.31;;;23.99;59.84
77216;BME280;66210;53.282;9.864;2023-08-21T09:26:31;101814.88;;;24.05;61.19
77216;BME280;66210;53.282;9.864;2023-08-21T09:29:03;101818.56;;;24.36;60.23
77216;BME280;66210;53.282;9.864;2023-08-21T09:31:32;101811.75;;;24.57;61.06
77216;BME280;66210;53.282;9.864;2023-08-21T09:34:03;101821.41;;;24.81;61.43
77216;BME280;66210;53.282;9.864;2023-08-21T09:36:33;101817.19;;;25.10;59.08
77216;BME280;66210;53.282;9.864;2023-08-21T09:39:01;101812.94;;;25.36;58.57
77216;BME280;66210;53.282;9.864;2023-08-21T09:41:29;101816.44;;;25.47;58.53
77216;BME280;66210;53.282;9.864;2023-08-21T09:43:59;101812.13;;;25.52;57.55
77216;BME280;66210;53.282;9.864;2023-08-21T09:46:27;101821.66;;;25.67;56.60
77216;BME280;66210;53.282;9.864;2023-08-21T09:48:55;101806.94;;;25.72;54.55
77216;BME280;66210;53.282;9.864;2023-08-21T09:51:21;101812.13;;;25.70;55.93
77216;BME280;66210;53.282;9.864;2023-08-21T09:53:48;101815.59;;;25.72;54.37
77216;BME280;66210;53.282;9.864;2023-08-21T09:56:19;101800.84;;;25.87;54.70
77216;BME280;66210;53.282;9.864;2023-08-21T09:58:48;101805.19;;;26.11;53.41
77216;BME280;66210;53.282;9.864;2023-08-21T10:01:17;101807.78;;;26.16;52.90
77216;BME280;66210;53.282;9.864;2023-08-21T10:03:46;101800.81;;;26.27;51.56
77216;BME280;66210;53.282;9.864;2023-08-21T10:06:17;101807.75;;;26.40;51.92
77216;BME280;66210;53.282;9.864;2023-08-21T10:08:51;101799.03;;;26.57;49.33
77216;BME280;66210;53.282;9.864;2023-08-21T10:11:20;101807.72;;;26.62;50.70
77216;BME280;66210;53.282;9.864;2023-08-21T10:13:48;101794.66;;;26.65;49.54
77216;BME280;66210;53.282;9.864;2023-08-21T10:16:18;101790.31;;;26.65;50.44
77216;BME280;66210;53.282;9.864;2023-08-21T10:18:45;101796.31;;;26.89;51.62
77216;BME280;66210;53.282;9.864;2023-08-21T10:21:15;101794.38;;;27.22;50.80
77216;BME280;66210;53.282;9.864;2023-08-21T10:23:49;101789.03;;;27.42;50.94
77216;BME280;66210;53.282;9.864;2023-08-21T10:26:19;101792.31;;;27.67;48.29
77216;BME280;66210;53.282;9.864;2023-08-21T10:28:59;101790.50;;;27.78;49.64
77216;BME280;66210;53.282;9.864;2023-08-21T10:31:38;101787.84;;;27.83;48.33
77216;BME280;66210;53.282;9.864;2023-08-21T10:34:07;101794.78;;;27.87;48.75
77216;BME280;66210;53.282;9.864;2023-08-21T10:39:24;101793.69;;;28.11;46.61
77216;BME280;66210;53.282;9.864;2023-08-21T10:42:17;101789.28;;;28.16;47.14
77216;BME280;66210;53.282;9.864;2023-08-21T10:47:32;101800.72;;;28.03;46.92
77216;BME280;66210;53.282;9.864;2023-08-21T10:50:02;101791.06;;;28.14;45.63
77216;BME280;66210;53.282;9.864;2023-08-21T10:52:31;101786.59;;;28.24;46.80
77216;BME280;66210;53.282;9.864;2023-08-21T10:55:02;101791.69;;;28.36;46.22
77216;BME280;66210;53.282;9.864;2023-08-21T10:57:33;101788.91;;;28.54;46.44
77216;BME280;66210;53.282;9.864;2023-08-21T11:02:32;101790.44;;;28.71;44.17
77216;BME280;66210;53.282;9.864;2023-08-21T11:05:00;101781.16;;;28.40;45.46
77216;BME280;66210;53.282;9.864;2023-08-21T11:07:27;101787.56;;;28.13;47.32
77216;BME280;66210;53.282;9.864;2023-08-21T11:09:54;101793.09;;;27.79;46.65
77216;BME280;66210;53.282;9.864;2023-08-21T11:12:23;101790.59;;;27.67;46.51
77216;BME280;66210;53.282;9.864;2023-08-21T11:14:50;101794.09;;;27.62;46.26
77216;BME280;66210;53.282;9.864;2023-08-21T11:17:17;101795.97;;;27.47;44.89
77216;BME280;66210;53.282;9.864;2023-08-21T11:19:46;101795.28;;;27.13;42.99
77216;BME280;66210;53.282;9.864;2023-08-21T11:22:16;101795.34;;;27.07;45.81
77216;BME280;66210;53.282;9.864;2023-08-21T11:24:45;101797.00;;;27.17;45.28
77216;BME280;66210;53.282;9.864;2023-08-21T11:27:14;101793.47;;;27.33;44.79
77216;BME280;66210;53.282;9.864;2023-08-21T11:29:43;101787.22;;;27.54;44.40
77216;BME280;66210;53.282;9.864;2023-08-21T11:32:18;101780.03;;;27.79;43.24
77216;BME280;66210;53.282;9.864;2023-08-21T11:34:56;101787.84;;;27.83;43.01
77216;BME280;66210;53.282;9.864;2023-08-21T11:37:26;101794.97;;;27.65;42.93
77216;BME280;66210;53.282;9.864;2023-08-21T11:39:55;101789.84;;;27.50;41.57
77216;BME280;66210;53.282;9.864;2023-08-21T11:42:32;101792.53;;;27.42;42.95
77216;BME280;66210;53.282;9.864;2023-08-21T11:45:00;101791.75;;;27.28;41.33
77216;BME280;66210;53.282;9.864;2023-08-21T11:47:33;101783.16;;;27.09;40.17
77216;BME280;66210;53.282;9.864;2023-08-21T11:50:07;101787.50;;;27.05;42.11
77216;BME280;66210;53.282;9.864;2023-08-21T11:52:36;101779.75;;;26.90;43.86
77216;BME280;66210;53.282;9.864;2023-08-21T11:55:09;101787.69;;;26.70;44.02
77216;BME280;66210;53.282;9.864;2023-08-21T11:57:50;101776.38;;;26.71;44.30
77216;BME280;66210;53.282;9.864;2023-08-21T12:00:18;101791.09;;;26.83;44.43
77216;BME280;66210;53.282;9.864;2023-08-21T12:02:56;101785.03;;;26.79;43.57
77216;BME280;66210;53.282;9.864;2023-08-21T12:05:23;101779.78;;;26.87;44.23
77216;BME280;66210;53.282;9.864;2023-08-21T12:07:50;101765.84;;;26.92;43.47
77216;BME280;66210;53.282;9.864;2023-08-21T12:10:27;101775.22;;;27.20;44.63
77216;BME280;66210;53.282;9.864;2023-08-21T12:12:55;101768.97;;;27.51;42.90
77216;BME280;66210;53.282;9.864;2023-08-21T12:15:22;101774.75;;;27.89;42.08
77216;BME280;66210;53.282;9.864;2023-08-21T12:17:49;101779.06;;;27.96;39.41
77216;BME280;66210;53.282;9.864;2023-08-21T12:20:15;101779.91;;;27.95;39.73
77216;BME280;66210;53.282;9.864;2023-08-21T12:22:42;101773.78;;;27.97;38.70
77216;BME280;66210;53.282;9.864;2023-08-21T12:25:09;101785.97;;;28.00;39.89
77216;BME280;66210;53.282;9.864;2023-08-21T12:27:36;101771.97;;;28.06;39.16
77216;BME280;66210;53.282;9.864;2023-08-21T12:30:05;101774.53;;;28.10;39.52
77216;BME280;66210;53.282;9.864;2023-08-21T12:32:32;101785.75;;;28.23;40.05
77216;BME280;66210;53.282;9.864;2023-08-21T12:34:59;101790.03;;;28.29;39.43
77216;BME280;66210;53.282;9.864;2023-08-21T12:37:26;101781.22;;;28.39;40.09
77216;BME280;66210;53.282;9.864;2023-08-21T12:39:53;101772.41;;;28.45;39.29
77216;BME280;66210;53.282;9.864;2023-08-21T12:42:20;101784.63;;;28.43;39.79
77216;BME280;66210;53.282;9.864;2023-08-21T12:44:46;101766.34;;;28.43;39.57
77216;BME280;66210;53.282;9.864;2023-08-21T12:47:13;101771.78;;;28.26;38.68
77216;BME280;66210;53.282;9.864;2023-08-21T12:49:40;101772.09;;;27.95;40.53
77216;BME280;66210;53.282;9.864;2023-08-21T12:52:06;101774.19;;;27.50;41.59
77216;BME280;66210;53.282;9.864;2023-08-21T12:54:36;101761.47;;;26.98;42.42
77216;BME280;66210;53.282;9.864;2023-08-21T12:57:03;101776.34;;;26.79;43.48
77216;BME280;66210;53.282;9.864;2023-08-21T12:59:29;101771.19;;;26.54;41.28
77216;BME280;66210;53.282;9.864;2023-08-21T13:01:58;101773.88;;;26.36;42.42
77216;BME280;66210;53.282;9.864;2023-08-21T13:04:27;101769.56;;;26.24;43.36
77216;BME280;66210;53.282;9.864;2023-08-21T13:06:53;101767.84;;;26.12;43.31